Terminal Aerodrome Forecast
Issued by NWS

Home | Current Version | Previous Version | Text Only | Print | Product List | Glossary On
Versions: 1 2 3 4 5 6 7 8 9 10 11 12 13 14 15 16 17 18 19 20
000
FTUS41 KRNK 312344
TAFBCB
TAF
KBCB 312344Z 0100/0124 09005KT P6SM SCT050 SCT250
     FM010400 00000KT 5SM BR FEW060 BKN250
     FM010900 00000KT 1/2SM FG VV002
     FM011300 10005KT P6SM SCT040 SCT250
     FM011900 11006KT P6SM VCTS BKN045CB BKN250=

USA.gov is the U.S. government's official web portal to all federal, state and local government web resources and services.